Flight Track Log - Related Links

Times and Time Zones

All times are in EST time to prevent confusion due to time zone crossing. See the FIN666 flight status page for this flight to view local times or setup timezone preferences in your user account.

Time Position Orientation Groundspeed Altitude Reporting Facility
EST Latitude Longitude Course Direction KTS MPH feet Rate Location/Type
Wed 07:25:00 AM 55.8966 13.2332 49° Northeast  Level Estimated
Wed 07:26:00 AM 55.9658 13.3788 50° Northeast  Level Estimated
Wed 07:27:00 AM 56.0387 13.5332 50° Northeast  Level Estimated
Wed 07:28:00 AM 56.1115 13.6881 50° Northeast  Level Estimated
Wed 07:29:00 AM 56.1841 13.8437 50° Northeast  Level Estimated
Wed 07:30:00 AM 56.2564 13.9998 50° Northeast  Level Estimated
Wed 07:31:00 AM 56.3286 14.1565 50° Northeast  Level Estimated
Wed 07:32:00 AM 56.4006 14.3138 50° Northeast  Level Estimated
Wed 07:33:00 AM 56.4723 14.4717 51° Northeast  Level Estimated
Wed 07:34:00 AM 56.5439 14.6302 51° Northeast  Level Estimated
Wed 07:35:00 AM 56.6153 14.7893 51° Northeast  Level Estimated
Wed 07:36:00 AM 56.6864 14.9490 51° Northeast  Level Estimated
Wed 07:37:00 AM 56.7574 15.1093 51° Northeast  Level Estimated
Wed 07:38:00 AM 56.8282 15.2703 51° Northeast  Level Estimated
Wed 07:39:00 AM 56.8987 15.4318 51° Northeast  Level Estimated
Wed 07:40:00 AM 56.9690 15.5939 51° Northeast  Level Estimated
Wed 07:41:00 AM 57.0392 15.7566 52° Northeast  Level Estimated
Wed 07:42:00 AM 57.1091 15.9200 52° Northeast  Level Estimated
Wed 07:43:00 AM 57.1788 16.0840 52° Northeast  Level Estimated
Wed 07:44:00 AM 57.2482 16.2486 52° Northeast  Level Estimated
Wed 07:45:00 AM 57.3175 16.4138 52° Northeast  Level Estimated
Wed 07:46:00 AM 57.3866 16.5796 52° Northeast  Level Estimated
Wed 07:47:00 AM 57.4554 16.7461 52° Northeast  Level Estimated
Wed 07:48:00 AM 57.5240 16.9132 53° Northeast  Level Estimated
Wed 07:49:00 AM 57.5924 17.0809 53° Northeast  Level Estimated
Wed 07:50:00 AM 57.6606 17.2493 53° Northeast  Level Estimated
Wed 07:51:00 AM 57.7285 17.4182 53° Northeast  Level Estimated
Wed 07:52:00 AM 57.7962 17.5879 53° Northeast  Level Estimated
Wed 07:53:00 AM 57.8637 17.7581 53° Northeast  Level Estimated
Wed 07:54:00 AM 57.9310 17.9290 53° Northeast  Level Estimated
Wed 07:55:00 AM 57.9980 18.1005 54° Northeast  Level Estimated
Wed 07:56:00 AM 58.0648 18.2727 54° Northeast  Level Estimated
Wed 07:57:00 AM 58.1314 18.4456 54° Northeast  Level Estimated
Wed 07:58:00 AM 58.1977 18.6190 54° Northeast  Level Estimated
Wed 07:59:00 AM 58.2638 18.7931 54° Northeast  Level Estimated
Wed 08:00:00 AM 58.3297 18.9679 54° Northeast  Level Estimated
Wed 08:01:00 AM 58.3953 19.1433 54° Northeast  Level Estimated
Wed 08:02:00 AM 58.4607 19.3194 55° Northeast  Level Estimated
Wed 08:03:00 AM 58.5258 19.4961 55° Northeast  Level Estimated
Wed 08:04:00 AM 58.5907 19.6735 55° Northeast  Level Estimated
Wed 08:05:00 AM 58.6553 19.8515 55° Northeast  Level Estimated
Wed 08:06:00 AM 58.7197 20.0302 55° Northeast  Level Estimated
Wed 08:07:00 AM 58.7839 20.2096 55° Northeast  Level Estimated
Wed 08:08:00 AM 58.8478 20.3896 55° Northeast  Level Estimated
Wed 08:09:00 AM 58.9114 20.5703 56° Northeast  Level Estimated
Wed 08:10:00 AM 58.9748 20.7516 56° Northeast  Level Estimated
Wed 08:11:00 AM 59.0380 20.9336 56° Northeast  Level Estimated
Wed 08:12:00 AM 59.1009 21.1163 56° Northeast  Level Estimated
Wed 08:13:00 AM 59.1635 21.2997 56° Northeast  Level Estimated
Wed 08:14:00 AM 59.2259 21.4837 56° Northeast  Level Estimated
Wed 08:15:00 AM 59.2880 21.6684 57° Northeast  Level Estimated
Wed 08:16:00 AM 59.3498 21.8538 57° Northeast  Level Estimated
Wed 08:17:00 AM 59.4114 22.0398 57° Northeast  Level Estimated
Wed 08:18:00 AM 59.4727 22.2266 57° Northeast  Level Estimated
Wed 08:19:00 AM 59.5338 22.4140 57° Northeast  Level Estimated
Wed 08:20:00 AM 59.5946 22.6021 57° Northeast  Level Estimated
Wed 08:21:00 AM 59.6551 22.7908 58° Northeast  Level Estimated
Wed 08:22:00 AM 59.7153 22.9803 58° Northeast  Level Estimated
Wed 08:23:00 AM 59.7753 23.1704 58° Northeast  Level Estimated
Wed 08:24:00 AM 59.8350 23.3612 58° Northeast  Level Estimated
Wed 08:25:00 AM 59.8944 23.5527 58° Northeast  Level Estimated
Wed 08:26:00 AM 59.9535 23.7449 58° Northeast  Level Estimated
Wed 08:27:00 AM 60.0124 23.9377 59° Northeast  Level Estimated
Wed 08:28:00 AM 60.0709 24.1313 59° Northeast  Level Estimated
Wed 08:29:00 AM 60.1292 24.3255 59° Northeast  Level Estimated
Wed 08:30:00 AM 60.1872 24.5204 59° Northeast  Level Estimated
Wed 08:31:00 AM 60.2449 24.7160 59° Northeast  Level Estimated
Wed 08:32:00 AM 60.3024 24.9123 59° Northeast  Level Estimated
Wed 08:33:00 AM 60.3172 24.9633 60° Northeast  Level Estimated
Wed 08:34:00 AM 60.3172 24.9633 North  Level Estimated
Wed 08:35:00 AM 60.3172 24.9633 North  Level Estimated
Wed 08:36:00 AM 60.3172 24.9633 North  Level Estimated
Wed 08:37:00 AM 60.3172 24.9633 North  Level Estimated
Wed 08:38:00 AM 60.3172 24.9633 North  Level Estimated
Wed 08:39:00 AM 60.3172 24.9633 North  Level Estimated
Wed 08:40:00 AM 60.3172 24.9633 North  Level Estimated
Wed 08:41:00 AM 60.3172 24.9633 North  Level Estimated
Wed 08:42:00 AM 60.3172 24.9633 North  Level Estimated
Wed 08:43:00 AM 60.3172 24.9633 North  Level Estimated
Wed 08:44:00 AM 60.3172 24.9633 North  Level Estimated
Wed 08:45:00 AM 60.3172 24.9633 North  Level Estimated
Wed 08:46:00 AM 60.3172 24.9633 North  Level Estimated
Wed 08:47:00 AM 60.3172 24.9633 North  Level Estimated

Login

Don't have an account? Register now (free) for customized features, flight alerts, and more!